sensor_id;sensor_type;location;lat;lon;timestamp;pressure;altitude;pressure_sealevel;temperature;humidity
59654;BME280;66556;52.008;5.432;2023-07-16T00:01:26;100773.0;;;40.6;15.62
59654;BME280;66556;52.008;5.432;2023-07-16T00:03:03;100769.0;;;39.93;16.3
59654;BME280;66556;52.008;5.432;2023-07-16T00:04:40;100773.0;;;40.6;15.54
59654;BME280;66556;52.008;5.432;2023-07-16T00:07:52;100775.0;;;39.75;16.61
59654;BME280;66556;52.008;5.432;2023-07-16T00:09:29;100778.0;;;41.07;15.28
59654;BME280;66556;52.008;5.432;2023-07-16T00:11:06;100778.0;;;41.42;15.08
59654;BME280;66556;52.008;5.432;2023-07-16T00:14:20;100777.0;;;40.97;15.39
59654;BME280;66556;52.008;5.432;2023-07-16T00:15:57;100776.0;;;39.96;16.03
59654;BME280;66556;52.008;5.432;2023-07-16T00:17:33;100781.0;;;39.49;16.43
59654;BME280;66556;52.008;5.432;2023-07-16T00:20:47;100782.0;;;39.35;16.65
59654;BME280;66556;52.008;5.432;2023-07-16T00:22:24;100772.0;;;39.72;16.34
59654;BME280;66556;52.008;5.432;2023-07-16T00:24:01;100775.0;;;40.47;15.81
59654;BME280;66556;52.008;5.432;2023-07-16T00:25:38;100770.0;;;40.74;15.66
59654;BME280;66556;52.008;5.432;2023-07-16T00:28:51;100775.0;;;40.74;15.85
59654;BME280;66556;52.008;5.432;2023-07-16T00:30:28;100772.0;;;40.49;15.87
59654;BME280;66556;52.008;5.432;2023-07-16T00:32:05;100777.0;;;39.92;16.45
59654;BME280;66556;52.008;5.432;2023-07-16T00:35:18;100783.0;;;40.46;15.98
59654;BME280;66556;52.008;5.432;2023-07-16T00:36:54;100783.0;;;39.54;16.79
59654;BME280;66556;52.008;5.432;2023-07-16T00:38:30;100783.0;;;40.6;15.72
59654;BME280;66556;52.008;5.432;2023-07-16T00:41:44;100782.0;;;40.17;16.13
59654;BME280;66556;52.008;5.432;2023-07-16T00:43:21;100782.0;;;41.49;15.14
59654;BME280;66556;52.008;5.432;2023-07-16T00:44:59;100781.0;;;40.96;15.44
59654;BME280;66556;52.008;5.432;2023-07-16T00:46:36;100783.0;;;40.14;16.2
59654;BME280;66556;52.008;5.432;2023-07-16T00:49:50;100781.0;;;40.44;16.09
59654;BME280;66556;52.008;5.432;2023-07-16T00:51:27;100790.0;;;39.89;16.75
59654;BME280;66556;52.008;5.432;2023-07-16T00:53:05;100796.0;;;38.92;17.45
59654;BME280;66556;52.008;5.432;2023-07-16T00:56:18;100797.0;;;38.26;18.07
59654;BME280;66556;52.008;5.432;2023-07-16T00:58:00;100805.0;;;38.0;18.38
59654;BME280;66556;52.008;5.432;2023-07-16T00:59:38;100795.0;;;38.1;18.2
59654;BME280;66556;52.008;5.432;2023-07-16T01:01:15;100798.0;;;38.15;18.18
59654;BME280;66556;52.008;5.432;2023-07-16T01:04:29;100797.0;;;38.49;18.0
59654;BME280;66556;52.008;5.432;2023-07-16T01:06:11;100789.0;;;39.06;17.38
59654;BME280;66556;52.008;5.432;2023-07-16T01:07:55;100799.0;;;38.11;18.07
59654;BME280;66556;52.008;5.432;2023-07-16T01:09:35;100795.0;;;39.71;16.79
59654;BME280;66556;52.008;5.432;2023-07-16T01:12:56;100798.0;;;38.93;17.52
59654;BME280;66556;52.008;5.432;2023-07-16T01:14:33;100799.0;;;38.49;17.79
59654;BME280;66556;52.008;5.432;2023-07-16T01:16:18;100798.0;;;39.28;17.27
59654;BME280;66556;52.008;5.432;2023-07-16T01:17:55;100794.0;;;39.69;16.86
59654;BME280;66556;52.008;5.432;2023-07-16T01:21:09;100801.0;;;39.39;17.11
59654;BME280;66556;52.008;5.432;2023-07-16T01:22:58;100800.0;;;39.21;17.38
59654;BME280;66556;52.008;5.432;2023-07-16T01:25:20;100801.0;;;39.61;17.11
59654;BME280;66556;52.008;5.432;2023-07-16T01:27:34;100800.0;;;38.65;17.75
59654;BME280;66556;52.008;5.432;2023-07-16T01:29:26;100803.0;;;38.99;17.55
59654;BME280;66556;52.008;5.432;2023-07-16T01:31:06;100798.0;;;38.93;17.68
59654;BME280;66556;52.008;5.432;2023-07-16T01:32:45;100800.0;;;38.85;17.71
59654;BME280;66556;52.008;5.432;2023-07-16T01:36:03;100792.0;;;39.42;17.36
59654;BME280;66556;52.008;5.432;2023-07-16T01:37:40;100792.0;;;39.89;16.93
59654;BME280;66556;52.008;5.432;2023-07-16T01:39:17;100800.0;;;38.86;17.71
59654;BME280;66556;52.008;5.432;2023-07-16T01:40:54;100791.0;;;39.1;17.56
59654;BME280;66556;52.008;5.432;2023-07-16T01:44:06;100795.0;;;38.08;18.53
59654;BME280;66556;52.008;5.432;2023-07-16T01:45:42;100796.0;;;37.85;18.89
59654;BME280;66556;52.008;5.432;2023-07-16T01:47:24;100798.0;;;39.21;17.53
59654;BME280;66556;52.008;5.432;2023-07-16T01:50:44;100794.0;;;39.71;17.25
59654;BME280;66556;52.008;5.432;2023-07-16T01:52:21;100795.0;;;39.46;17.3
59654;BME280;66556;52.008;5.432;2023-07-16T01:53:58;100796.0;;;40.83;16.25
59654;BME280;66556;52.008;5.432;2023-07-16T01:55:35;100800.0;;;40.46;16.5
59654;BME280;66556;52.008;5.432;2023-07-16T01:58:48;100794.0;;;40.71;16.23
59654;BME280;66556;52.008;5.432;2023-07-16T02:00:25;100787.0;;;41.08;15.85
59654;BME280;66556;52.008;5.432;2023-07-16T02:02:02;100787.0;;;39.69;17.09
59654;BME280;66556;52.008;5.432;2023-07-16T02:05:16;100794.0;;;39.0;17.72
59654;BME280;66556;52.008;5.432;2023-07-16T02:06:52;100792.0;;;39.56;17.31
59654;BME280;66556;52.008;5.432;2023-07-16T02:11:43;100791.0;;;40.37;16.5
59654;BME280;66556;52.008;5.432;2023-07-16T02:13:20;100785.0;;;41.32;15.78
59654;BME280;66556;52.008;5.432;2023-07-16T02:14:56;100795.0;;;40.76;16.09
59654;BME280;66556;52.008;5.432;2023-07-16T02:16:32;100795.0;;;40.22;16.93
59654;BME280;66556;52.008;5.432;2023-07-16T02:19:47;100797.0;;;39.71;17.23
59654;BME280;66556;52.008;5.432;2023-07-16T02:21:23;100795.0;;;40.67;16.41
59654;BME280;66556;52.008;5.432;2023-07-16T02:22:59;100790.0;;;41.0;16.06
59654;BME280;66556;52.008;5.432;2023-07-16T02:26:12;100793.0;;;41.19;15.85
59654;BME280;66556;52.008;5.432;2023-07-16T02:27:50;100800.0;;;40.17;16.87
59654;BME280;66556;52.008;5.432;2023-07-16T02:29:26;100798.0;;;39.58;17.36
59654;BME280;66556;52.008;5.432;2023-07-16T02:32:39;100799.0;;;39.96;17.04
59654;BME280;66556;52.008;5.432;2023-07-16T02:34:15;100795.0;;;41.47;15.72
59654;BME280;66556;52.008;5.432;2023-07-16T02:35:52;100788.0;;;41.26;15.96
59654;BME280;66556;52.008;5.432;2023-07-16T02:37:29;100795.0;;;40.21;16.88
59654;BME280;66556;52.008;5.432;2023-07-16T02:40:43;100798.0;;;40.4;16.7
59654;BME280;66556;52.008;5.432;2023-07-16T02:42:20;100796.0;;;40.49;16.68
59654;BME280;66556;52.008;5.432;2023-07-16T02:43:59;100796.0;;;40.26;16.93
59654;BME280;66556;52.008;5.432;2023-07-16T02:47:15;100797.0;;;40.31;16.84
59654;BME280;66556;52.008;5.432;2023-07-16T02:48:51;100800.0;;;39.81;17.21
59654;BME280;66556;52.008;5.432;2023-07-16T02:50:28;100799.0;;;39.68;17.36
59654;BME280;66556;52.008;5.432;2023-07-16T02:52:06;100805.0;;;40.29;16.93
59654;BME280;66556;52.008;5.432;2023-07-16T02:55:19;100799.0;;;39.65;17.57
59654;BME280;66556;52.008;5.432;2023-07-16T02:56:56;100810.0;;;38.79;18.36
59654;BME280;66556;52.008;5.432;2023-07-16T03:01:49;100812.0;;;38.18;18.88
59654;BME280;66556;52.008;5.432;2023-07-16T03:03:26;100801.0;;;39.22;17.96
59654;BME280;66556;52.008;5.432;2023-07-16T03:05:02;100801.0;;;39.9;17.27
59654;BME280;66556;52.008;5.432;2023-07-16T03:06:39;100806.0;;;38.96;18.22
59654;BME280;66556;52.008;5.432;2023-07-16T03:09:51;100801.0;;;39.6;17.73
59654;BME280;66556;52.008;5.432;2023-07-16T03:11:29;100798.0;;;39.85;17.34
59654;BME280;66556;52.008;5.432;2023-07-16T03:13:06;100801.0;;;39.85;17.21
59654;BME280;66556;52.008;5.432;2023-07-16T03:16:19;100813.0;;;38.93;18.25
59654;BME280;66556;52.008;5.432;2023-07-16T03:17:56;100810.0;;;40.28;17.04
59654;BME280;66556;52.008;5.432;2023-07-16T03:19:33;100810.0;;;40.25;17.03
59654;BME280;66556;52.008;5.432;2023-07-16T03:22:46;100811.0;;;40.67;16.75
59654;BME280;66556;52.008;5.432;2023-07-16T03:24:23;100819.0;;;40.78;16.52
59654;BME280;66556;52.008;5.432;2023-07-16T03:26:00;100820.0;;;39.36;18.0
59654;BME280;66556;52.008;5.432;2023-07-16T03:27:37;100813.0;;;40.79;16.7
59654;BME280;66556;52.008;5.432;2023-07-16T03:30:51;100816.0;;;40.36;17.28
59654;BME280;66556;52.008;5.432;2023-07-16T03:32:28;100819.0;;;39.97;17.64
59654;BME280;66556;52.008;5.432;2023-07-16T03:34:04;100817.0;;;40.49;17.2
59654;BME280;66556;52.008;5.432;2023-07-16T03:37:19;100817.0;;;39.35;18.52
59654;BME280;66556;52.008;5.432;2023-07-16T03:38:56;100820.0;;;39.71;18.0
59654;BME280;66556;52.008;5.432;2023-07-16T03:40:32;100820.0;;;40.89;16.93
59654;BME280;66556;52.008;5.432;2023-07-16T03:43:45;100830.0;;;38.65;18.84
59654;BME280;66556;52.008;5.432;2023-07-16T03:45:23;100826.0;;;39.35;18.25
59654;BME280;66556;52.008;5.432;2023-07-16T03:47:00;100833.0;;;39.47;18.27
59654;BME280;66556;52.008;5.432;2023-07-16T03:48:36;100840.0;;;37.94;19.62
59654;BME280;66556;52.008;5.432;2023-07-16T03:51:49;100848.0;;;37.21;20.25
59654;BME280;66556;52.008;5.432;2023-07-16T03:53:25;100846.0;;;37.78;19.82
59654;BME280;66556;52.008;5.432;2023-07-16T03:55:03;100849.0;;;36.81;20.68
59654;BME280;66556;52.008;5.432;2023-07-16T03:58:16;100855.0;;;37.49;20.04
59654;BME280;66556;52.008;5.432;2023-07-16T03:59:52;100858.0;;;37.65;19.86
59654;BME280;66556;52.008;5.432;2023-07-16T04:01:29;100853.0;;;37.94;19.59
59654;BME280;66556;52.008;5.432;2023-07-16T04:03:05;100861.0;;;38.71;18.66
59654;BME280;66556;52.008;5.432;2023-07-16T04:06:18;100855.0;;;38.89;18.36
59654;BME280;66556;52.008;5.432;2023-07-16T04:07:54;100856.0;;;38.61;18.72
59654;BME280;66556;52.008;5.432;2023-07-16T04:09:30;100855.0;;;40.35;17.06
59654;BME280;66556;52.008;5.432;2023-07-16T04:12:44;100849.0;;;39.86;17.39
59654;BME280;66556;52.008;5.432;2023-07-16T04:14:21;100855.0;;;39.71;17.55
59654;BME280;66556;52.008;5.432;2023-07-16T04:15:58;100864.0;;;39.31;17.62
59654;BME280;66556;52.008;5.432;2023-07-16T04:19:12;100866.0;;;39.06;17.84
59654;BME280;66556;52.008;5.432;2023-07-16T04:20:49;100865.0;;;39.97;17.2
59654;BME280;66556;52.008;5.432;2023-07-16T04:22:26;100874.0;;;38.81;18.04
59654;BME280;66556;52.008;5.432;2023-07-16T04:24:03;100873.0;;;39.64;17.43
59654;BME280;66556;52.008;5.432;2023-07-16T04:27:16;100877.0;;;39.24;17.59
59654;BME280;66556;52.008;5.432;2023-07-16T04:28:54;100886.0;;;38.69;18.27
59654;BME280;66556;52.008;5.432;2023-07-16T04:30:31;100880.0;;;38.37;18.37
59654;BME280;66556;52.008;5.432;2023-07-16T04:33:45;100880.0;;;38.64;18.46
59654;BME280;66556;52.008;5.432;2023-07-16T04:35:22;100881.0;;;38.5;18.52
59654;BME280;66556;52.008;5.432;2023-07-16T04:36:59;100877.0;;;39.47;17.61
59654;BME280;66556;52.008;5.432;2023-07-16T04:40:12;100885.0;;;37.92;18.89
59654;BME280;66556;52.008;5.432;2023-07-16T04:41:49;100885.0;;;36.56;20.27
59654;BME280;66556;52.008;5.432;2023-07-16T04:43:25;100886.0;;;37.56;19.37
59654;BME280;66556;52.008;5.432;2023-07-16T04:45:01;100883.0;;;37.76;19.16
59654;BME280;66556;52.008;5.432;2023-07-16T04:48:14;100887.0;;;37.68;19.25
59654;BME280;66556;52.008;5.432;2023-07-16T04:49:51;100891.0;;;38.86;18.38
59654;BME280;66556;52.008;5.432;2023-07-16T04:51:27;100885.0;;;39.24;17.63
59654;BME280;66556;52.008;5.432;2023-07-16T04:54:41;100885.0;;;39.08;17.66
59654;BME280;66556;52.008;5.432;2023-07-16T04:56:17;100897.0;;;38.03;19.09
59654;BME280;66556;52.008;5.432;2023-07-16T04:57:54;100897.0;;;38.57;18.43
59654;BME280;66556;52.008;5.432;2023-07-16T05:01:08;100899.0;;;38.01;18.73
59654;BME280;66556;52.008;5.432;2023-07-16T05:02:46;100895.0;;;39.17;17.68
59654;BME280;66556;52.008;5.432;2023-07-16T05:04:22;100900.0;;;38.86;17.97
59654;BME280;66556;52.008;5.432;2023-07-16T05:05:58;100903.0;;;38.67;17.93
59654;BME280;66556;52.008;5.432;2023-07-16T05:09:11;100902.0;;;39.44;17.71
59654;BME280;66556;52.008;5.432;2023-07-16T05:10:49;100906.0;;;40.22;16.87
59654;BME280;66556;52.008;5.432;2023-07-16T05:12:26;100907.0;;;40.14;16.75
59654;BME280;66556;52.008;5.432;2023-07-16T05:15:38;100910.0;;;38.92;17.66
59654;BME280;66556;52.008;5.432;2023-07-16T05:17:16;100907.0;;;38.51;18.41
59654;BME280;66556;52.008;5.432;2023-07-16T05:18:52;100905.0;;;38.83;17.98
59654;BME280;66556;52.008;5.432;2023-07-16T05:22:06;100903.0;;;38.71;18.13
59654;BME280;66556;52.008;5.432;2023-07-16T05:23:43;100906.0;;;37.87;19.06
59654;BME280;66556;52.008;5.432;2023-07-16T05:25:20;100910.0;;;39.12;17.71
59654;BME280;66556;52.008;5.432;2023-07-16T05:26:57;100905.0;;;39.31;17.82
59654;BME280;66556;52.008;5.432;2023-07-16T05:30:09;100913.0;;;38.71;18.16
59654;BME280;66556;52.008;5.432;2023-07-16T05:31:46;100917.0;;;39.03;17.95
59654;BME280;66556;52.008;5.432;2023-07-16T05:33:22;100920.0;;;38.62;18.2
59654;BME280;66556;52.008;5.432;2023-07-16T05:36:35;100930.0;;;38.71;18.02
59654;BME280;66556;52.008;5.432;2023-07-16T05:38:12;100927.0;;;39.39;17.5
59654;BME280;66556;52.008;5.432;2023-07-16T05:39:48;100935.0;;;39.51;17.2
59654;BME280;66556;52.008;5.432;2023-07-16T05:43:02;100930.0;;;39.6;17.12
59654;BME280;66556;52.008;5.432;2023-07-16T05:44:39;100935.0;;;39.62;17.11
59654;BME280;66556;52.008;5.432;2023-07-16T05:46:16;100931.0;;;40.6;16.36
59654;BME280;66556;52.008;5.432;2023-07-16T05:47:53;100953.0;;;39.96;16.34
59654;BME280;66556;52.008;5.432;2023-07-16T05:51:05;100941.0;;;40.06;16.62
59654;BME280;66556;52.008;5.432;2023-07-16T05:52:42;100942.0;;;40.93;15.87
59654;BME280;66556;52.008;5.432;2023-07-16T05:54:18;100944.0;;;41.15;15.81
59654;BME280;66556;52.008;5.432;2023-07-16T05:57:31;100949.0;;;40.68;16.21
59654;BME280;66556;52.008;5.432;2023-07-16T05:59:09;100963.0;;;40.31;16.2
59654;BME280;66556;52.008;5.432;2023-07-16T06:00:45;100967.0;;;40.24;16.37
59654;BME280;66556;52.008;5.432;2023-07-16T06:02:22;100970.0;;;39.25;17.14
59654;BME280;66556;52.008;5.432;2023-07-16T06:05:36;100955.0;;;40.53;16.25
59654;BME280;66556;52.008;5.432;2023-07-16T06:07:13;100965.0;;;41.01;16.21
59654;BME280;66556;52.008;5.432;2023-07-16T06:08:50;100969.0;;;40.11;16.75
59654;BME280;66556;52.008;5.432;2023-07-16T06:12:04;100961.0;;;39.83;16.98
59654;BME280;66556;52.008;5.432;2023-07-16T06:13:41;100966.0;;;39.35;17.21
59654;BME280;66556;52.008;5.432;2023-07-16T06:15:17;100968.0;;;39.03;17.12
59654;BME280;66556;52.008;5.432;2023-07-16T06:18:31;100962.0;;;41.25;15.75
59654;BME280;66556;52.008;5.432;2023-07-16T06:20:08;100969.0;;;40.32;16.28
59654;BME280;66556;52.008;5.432;2023-07-16T06:21:44;100962.0;;;40.99;16.23
59654;BME280;66556;52.008;5.432;2023-07-16T06:23:21;100966.0;;;41.84;15.19
59654;BME280;66556;52.008;5.432;2023-07-16T06:26:33;100972.0;;;41.47;15.89
59654;BME280;66556;52.008;5.432;2023-07-16T06:28:11;100983.0;;;41.56;15.51
59654;BME280;66556;52.008;5.432;2023-07-16T06:29:47;100973.0;;;42.52;15.0
59654;BME280;66556;52.008;5.432;2023-07-16T06:32:59;100983.0;;;41.14;15.74
59654;BME280;66556;52.008;5.432;2023-07-16T06:34:36;100980.0;;;41.69;15.36
59654;BME280;66556;52.008;5.432;2023-07-16T06:36:13;100996.0;;;40.74;16.02
59654;BME280;66556;52.008;5.432;2023-07-16T06:39:26;100978.0;;;42.52;14.8
59654;BME280;66556;52.008;5.432;2023-07-16T06:41:03;100981.0;;;42.23;15.24
59654;BME280;66556;52.008;5.432;2023-07-16T06:42:41;100989.0;;;42.75;14.78
59654;BME280;66556;52.008;5.432;2023-07-16T06:44:17;100984.0;;;41.82;15.62
59654;BME280;66556;52.008;5.432;2023-07-16T06:47:30;100987.0;;;43.75;14.31
59654;BME280;66556;52.008;5.432;2023-07-16T06:49:07;100985.0;;;44.18;14.13
59654;BME280;66556;52.008;5.432;2023-07-16T06:50:44;100985.0;;;42.05;15.17
59654;BME280;66556;52.008;5.432;2023-07-16T06:53:59;100982.0;;;43.13;14.79
59654;BME280;66556;52.008;5.432;2023-07-16T06:55:36;100997.0;;;40.24;16.63
59654;BME280;66556;52.008;5.432;2023-07-16T06:57:13;100981.0;;;41.12;16.18
59654;BME280;66556;52.008;5.432;2023-07-16T06:58:50;100987.0;;;41.68;15.62
59654;BME280;66556;52.008;5.432;2023-07-16T07:02:04;100988.0;;;42.43;15.04
59654;BME280;66556;52.008;5.432;2023-07-16T07:05:19;101014.0;;;40.76;16.27
59654;BME280;66556;52.008;5.432;2023-07-16T07:08:33;100991.0;;;41.58;15.7
59654;BME280;66556;52.008;5.432;2023-07-16T07:10:10;101005.0;;;41.94;15.35
59654;BME280;66556;52.008;5.432;2023-07-16T07:11:48;101005.0;;;42.2;15.48
59654;BME280;66556;52.008;5.432;2023-07-16T07:15:01;101009.0;;;43.17;14.7
59654;BME280;66556;52.008;5.432;2023-07-16T07:16:37;100996.0;;;43.62;14.25
59654;BME280;66556;52.008;5.432;2023-07-16T07:18:13;101009.0;;;42.22;15.24
59654;BME280;66556;52.008;5.432;2023-07-16T07:19:49;101014.0;;;42.24;15.36
59654;BME280;66556;52.008;5.432;2023-07-16T07:23:02;101017.0;;;42.32;15.32
59654;BME280;66556;52.008;5.432;2023-07-16T07:24:39;101019.0;;;42.77;15.35
59654;BME280;66556;52.008;5.432;2023-07-16T07:26:15;101016.0;;;43.27;14.69
59654;BME280;66556;52.008;5.432;2023-07-16T07:29:28;101012.0;;;43.39;14.57
59654;BME280;66556;52.008;5.432;2023-07-16T07:31:05;101032.0;;;43.58;14.62
59654;BME280;66556;52.008;5.432;2023-07-16T07:32:41;101032.0;;;44.63;14.33
59654;BME280;66556;52.008;5.432;2023-07-16T07:35:53;101028.0;;;43.78;14.22
59654;BME280;66556;52.008;5.432;2023-07-16T07:37:30;101032.0;;;43.6;14.7
59654;BME280;66556;52.008;5.432;2023-07-16T07:39:07;101032.0;;;43.67;14.66
59654;BME280;66556;52.008;5.432;2023-07-16T07:40:44;101031.0;;;41.77;15.96
59654;BME280;66556;52.008;5.432;2023-07-16T07:43:56;101028.0;;;42.65;15.33
59654;BME280;66556;52.008;5.432;2023-07-16T07:45:33;101035.0;;;41.16;16.16
59654;BME280;66556;52.008;5.432;2023-07-16T07:47:10;101033.0;;;42.06;15.53
59654;BME280;66556;52.008;5.432;2023-07-16T07:50:23;101035.0;;;41.51;16.18
59654;BME280;66556;52.008;5.432;2023-07-16T07:51:59;101034.0;;;42.39;16.03
59654;BME280;66556;52.008;5.432;2023-07-16T07:53:36;101035.0;;;42.29;15.89
59654;BME280;66556;52.008;5.432;2023-07-16T07:56:48;101035.0;;;41.84;15.98
59654;BME280;66556;52.008;5.432;2023-07-16T07:58:25;101043.0;;;41.45;16.34
59654;BME280;66556;52.008;5.432;2023-07-16T08:00:02;101043.0;;;42.66;15.3
59654;BME280;66556;52.008;5.432;2023-07-16T08:01:39;101046.0;;;42.93;15.37
59654;BME280;66556;52.008;5.432;2023-07-16T08:04:53;101040.0;;;41.89;15.79
59654;BME280;66556;52.008;5.432;2023-07-16T08:06:31;101045.0;;;43.21;15.4
59654;BME280;66556;52.008;5.432;2023-07-16T08:08:08;101037.0;;;42.47;15.71
59654;BME280;66556;52.008;5.432;2023-07-16T08:11:23;101046.0;;;43.27;15.01
59654;BME280;66556;52.008;5.432;2023-07-16T08:13:00;101053.0;;;42.4;15.62
59654;BME280;66556;52.008;5.432;2023-07-16T08:14:37;101055.0;;;42.79;15.29
59654;BME280;66556;52.008;5.432;2023-07-16T08:16:14;101060.0;;;41.95;15.74
59654;BME280;66556;52.008;5.432;2023-07-16T08:19:27;101059.0;;;42.21;15.72
59654;BME280;66556;52.008;5.432;2023-07-16T08:21:04;101077.0;;;41.03;16.75
59654;BME280;66556;52.008;5.432;2023-07-16T08:22:41;101080.0;;;41.09;16.65
59654;BME280;66556;52.008;5.432;2023-07-16T08:25:53;101069.0;;;40.53;17.05
59654;BME280;66556;52.008;5.432;2023-07-16T08:27:31;101063.0;;;41.61;16.25
59654;BME280;66556;52.008;5.432;2023-07-16T08:29:08;101069.0;;;42.07;15.8
59654;BME280;66556;52.008;5.432;2023-07-16T08:32:23;101070.0;;;42.87;15.15
59654;BME280;66556;52.008;5.432;2023-07-16T08:33:59;101067.0;;;41.89;15.89
59654;BME280;66556;52.008;5.432;2023-07-16T08:35:36;101074.0;;;42.47;15.69
59654;BME280;66556;52.008;5.432;2023-07-16T08:37:13;101081.0;;;41.98;16.14
59654;BME280;66556;52.008;5.432;2023-07-16T08:40:26;101076.0;;;42.1;15.99
59654;BME280;66556;52.008;5.432;2023-07-16T08:42:02;101086.0;;;41.1;16.63
59654;BME280;66556;52.008;5.432;2023-07-16T08:43:41;101087.0;;;42.24;15.91
59654;BME280;66556;52.008;5.432;2023-07-16T08:46:57;101082.0;;;43.41;15.11
59654;BME280;66556;52.008;5.432;2023-07-16T08:48:34;101085.0;;;42.04;15.97
59654;BME280;66556;52.008;5.432;2023-07-16T08:50:12;101085.0;;;42.33;16.2
59654;BME280;66556;52.008;5.432;2023-07-16T08:51:49;101092.0;;;43.37;15.26
59654;BME280;66556;52.008;5.432;2023-07-16T08:55:03;101097.0;;;42.42;15.9
59654;BME280;66556;52.008;5.432;2023-07-16T08:56:40;101098.0;;;42.52;15.88
59654;BME280;66556;52.008;5.432;2023-07-16T08:58:17;101106.0;;;42.15;15.99
59654;BME280;66556;52.008;5.432;2023-07-16T09:01:32;101100.0;;;42.58;15.57
59654;BME280;66556;52.008;5.432;2023-07-16T09:03:11;101092.0;;;43.52;15.07
59654;BME280;66556;52.008;5.432;2023-07-16T09:04:48;101103.0;;;42.68;15.93
59654;BME280;66556;52.008;5.432;2023-07-16T09:06:27;101097.0;;;42.44;15.84
59654;BME280;66556;52.008;5.432;2023-07-16T09:09:40;101098.0;;;41.9;16.16
59654;BME280;66556;52.008;5.432;2023-07-16T09:11:18;101101.0;;;42.3;16.02
59654;BME280;66556;52.008;5.432;2023-07-16T09:12:58;101105.0;;;43.25;15.23
59654;BME280;66556;52.008;5.432;2023-07-16T09:16:10;101110.0;;;43.5;15.15
59654;BME280;66556;52.008;5.432;2023-07-16T09:17:48;101115.0;;;43.05;15.48
59654;BME280;66556;52.008;5.432;2023-07-16T09:19:25;101116.0;;;43.02;15.38
59654;BME280;66556;52.008;5.432;2023-07-16T09:22:39;101124.0;;;43.12;15.34
59654;BME280;66556;52.008;5.432;2023-07-16T09:24:15;101119.0;;;42.83;15.75
59654;BME280;66556;52.008;5.432;2023-07-16T09:25:53;101123.0;;;42.56;15.92
59654;BME280;66556;52.008;5.432;2023-07-16T09:27:30;101125.0;;;43.67;15.16
59654;BME280;66556;52.008;5.432;2023-07-16T09:30:43;101118.0;;;44.23;15.06
59654;BME280;66556;52.008;5.432;2023-07-16T09:32:21;101122.0;;;45.3;14.48
59654;BME280;66556;52.008;5.432;2023-07-16T09:33:58;101121.0;;;45.01;14.22
59654;BME280;66556;52.008;5.432;2023-07-16T09:37:12;101118.0;;;44.94;14.07
59654;BME280;66556;52.008;5.432;2023-07-16T09:38:49;101117.0;;;45.43;14.0
59654;BME280;66556;52.008;5.432;2023-07-16T09:40:26;101118.0;;;45.18;14.35
59654;BME280;66556;52.008;5.432;2023-07-16T09:42:05;101130.0;;;43.59;15.18
59654;BME280;66556;52.008;5.432;2023-07-16T09:45:20;101127.0;;;43.76;15.04
59654;BME280;66556;52.008;5.432;2023-07-16T09:46:57;101135.0;;;43.32;15.31
59654;BME280;66556;52.008;5.432;2023-07-16T09:48:34;101125.0;;;43.83;14.79
59654;BME280;66556;52.008;5.432;2023-07-16T09:51:48;101135.0;;;43.31;15.09
59654;BME280;66556;52.008;5.432;2023-07-16T09:53:30;101130.0;;;42.95;15.37
59654;BME280;66556;52.008;5.432;2023-07-16T09:55:09;101139.0;;;42.94;15.26
59654;BME280;66556;52.008;5.432;2023-07-16T09:56:50;101140.0;;;42.76;15.51
59654;BME280;66556;52.008;5.432;2023-07-16T10:00:07;101141.0;;;42.6;15.65
59654;BME280;66556;52.008;5.432;2023-07-16T10:01:46;101146.0;;;43.05;15.43
59654;BME280;66556;52.008;5.432;2023-07-16T10:03:23;101149.0;;;43.19;15.09
59654;BME280;66556;52.008;5.432;2023-07-16T10:05:00;101151.0;;;43.1;15.09
59654;BME280;66556;52.008;5.432;2023-07-16T10:08:34;101152.0;;;43.78;14.87
59654;BME280;66556;52.008;5.432;2023-07-16T10:10:11;101155.0;;;42.58;15.66
59654;BME280;66556;52.008;5.432;2023-07-16T10:11:47;101162.0;;;43.14;15.21
59654;BME280;66556;52.008;5.432;2023-07-16T10:13:24;101160.0;;;42.24;15.99
59654;BME280;66556;52.008;5.432;2023-07-16T10:16:38;101161.0;;;43.28;15.71
59654;BME280;66556;52.008;5.432;2023-07-16T10:18:23;101169.0;;;43.0;15.89
59654;BME280;66556;52.008;5.432;2023-07-16T10:20:01;101159.0;;;44.6;14.92
59654;BME280;66556;52.008;5.432;2023-07-16T10:23:16;101164.0;;;44.25;14.83
59654;BME280;66556;52.008;5.432;2023-07-16T10:24:53;101173.0;;;43.16;15.89
59654;BME280;66556;52.008;5.432;2023-07-16T10:26:30;101163.0;;;43.21;15.96
59654;BME280;66556;52.008;5.432;2023-07-16T10:28:08;101170.0;;;43.77;15.26
59654;BME280;66556;52.008;5.432;2023-07-16T10:31:22;101173.0;;;44.02;14.83
59654;BME280;66556;52.008;5.432;2023-07-16T10:33:03;101174.0;;;44.32;14.57
59654;BME280;66556;52.008;5.432;2023-07-16T10:34:40;101173.0;;;45.36;13.94
59654;BME280;66556;52.008;5.432;2023-07-16T10:37:56;101188.0;;;43.94;14.92
59654;BME280;66556;52.008;5.432;2023-07-16T10:39:32;101191.0;;;43.15;15.36
59654;BME280;66556;52.008;5.432;2023-07-16T10:41:09;101185.0;;;43.08;15.52
59654;BME280;66556;52.008;5.432;2023-07-16T10:42:45;101192.0;;;43.13;15.69
59654;BME280;66556;52.008;5.432;2023-07-16T10:45:59;101190.0;;;42.95;15.88
59654;BME280;66556;52.008;5.432;2023-07-16T10:47:37;101192.0;;;43.51;15.43
59654;BME280;66556;52.008;5.432;2023-07-16T10:49:13;101196.0;;;43.54;15.3
59654;BME280;66556;52.008;5.432;2023-07-16T10:52:30;101200.0;;;44.37;15.0
59654;BME280;66556;52.008;5.432;2023-07-16T10:54:06;101202.0;;;44.42;15.03
59654;BME280;66556;52.008;5.432;2023-07-16T10:55:43;101200.0;;;44.79;14.98
59654;BME280;66556;52.008;5.432;2023-07-16T10:57:21;101203.0;;;44.13;15.12
59654;BME280;66556;52.008;5.432;2023-07-16T11:00:37;101205.0;;;42.56;16.28
59654;BME280;66556;52.008;5.432;2023-07-16T11:02:16;101206.0;;;44.67;14.7
59654;BME280;66556;52.008;5.432;2023-07-16T11:03:52;101215.0;;;44.37;14.93
59654;BME280;66556;52.008;5.432;2023-07-16T11:07:07;101209.0;;;43.68;15.57
59654;BME280;66556;52.008;5.432;2023-07-16T11:08:43;101215.0;;;44.14;15.11
59654;BME280;66556;52.008;5.432;2023-07-16T11:10:20;101220.0;;;43.73;15.87
59654;BME280;66556;52.008;5.432;2023-07-16T11:12:05;101215.0;;;45.15;14.79